createdAt,value
2023-11-05T00:01:40.434Z,98665.41
2023-11-05T00:04:09.497Z,98661.97
2023-11-05T00:06:38.556Z,98646.94
2023-11-05T00:09:07.459Z,98666.84
2023-11-05T00:11:38.099Z,98673.91
2023-11-05T00:14:07.050Z,98664.66
2023-11-05T00:16:35.940Z,98656.94
2023-11-05T00:19:04.886Z,98656.91
2023-11-05T00:21:33.765Z,98665.38
2023-11-05T00:24:02.617Z,98662.38
2023-11-05T00:26:31.431Z,98659.34
2023-11-05T00:29:01.867Z,98669.25
2023-11-05T00:31:32.307Z,98667.09
2023-11-05T00:34:03.635Z,98675.63
2023-11-05T00:36:32.504Z,98686.09
2023-11-05T00:39:01.348Z,98682.25
2023-11-05T00:41:30.212Z,98683.25
2023-11-05T00:44:00.512Z,98685.72
2023-11-05T00:46:29.492Z,98672.31
2023-11-05T00:48:58.343Z,98684.91
2023-11-05T00:51:28.168Z,98696.38
2023-11-05T00:53:56.947Z,98695.56
2023-11-05T00:56:25.892Z,98696.47
2023-11-05T00:58:54.653Z,98694.91
2023-11-05T01:01:24.976Z,98696.47
2023-11-05T01:03:54.100Z,98706.00
2023-11-05T01:06:22.875Z,98703.72
2023-11-05T01:08:52.751Z,98712.41
2023-11-05T01:11:22.122Z,98691.47
2023-11-05T01:13:51.014Z,98704.59
2023-11-05T01:16:19.928Z,98710.28
2023-11-05T01:18:51.731Z,98709.28
2023-11-05T01:21:20.550Z,98713.47
2023-11-05T01:23:49.335Z,98700.53
2023-11-05T01:26:19.625Z,98691.38
2023-11-05T01:28:50.717Z,98723.88
2023-11-05T01:31:21.700Z,98716.16
2023-11-05T01:33:52.131Z,98724.50
2023-11-05T01:36:21.431Z,98728.16
2023-11-05T01:38:52.171Z,98731.16
2023-11-05T01:41:22.220Z,98727.22
2023-11-05T01:43:51.104Z,98726.91
2023-11-05T01:46:20.972Z,98726.44
2023-11-05T01:48:51.876Z,98723.53
2023-11-05T01:51:20.889Z,98735.63
2023-11-05T01:53:54.437Z,98726.50
2023-11-05T01:56:25.285Z,98734.16
2023-11-05T01:58:58.765Z,98677.34
2023-11-05T02:01:28.325Z,98741.19
2023-11-05T02:03:59.994Z,98740.53
2023-11-05T02:06:33.689Z,98752.81
2023-11-05T02:09:02.723Z,98746.84
2023-11-05T02:11:31.575Z,98745.38
2023-11-05T02:14:01.278Z,98743.09
2023-11-05T02:16:34.018Z,98721.88
2023-11-05T02:19:15.199Z,98751.25
2023-11-05T02:21:48.774Z,98754.41
2023-11-05T02:24:20.182Z,98759.41
2023-11-05T02:26:58.108Z,98754.44
2023-11-05T02:29:28.364Z,98768.25
2023-11-05T02:32:01.065Z,98752.50
2023-11-05T02:34:32.076Z,98765.44
2023-11-05T02:37:05.117Z,98768.44
2023-11-05T02:39:36.114Z,98763.66
2023-11-05T02:42:11.262Z,98775.13
2023-11-05T02:44:47.850Z,98774.63
2023-11-05T02:47:20.974Z,98774.44
2023-11-05T02:49:57.506Z,98777.28
2023-11-05T02:52:29.466Z,98778.81
2023-11-05T02:55:02.646Z,98775.50
2023-11-05T02:57:39.049Z,98785.97
2023-11-05T03:00:15.238Z,98786.13
2023-11-05T03:02:46.399Z,98786.13
2023-11-05T03:05:15.274Z,98786.28
2023-11-05T03:07:47.557Z,98789.13
2023-11-05T03:10:18.879Z,98786.63
2023-11-05T03:12:47.997Z,98783.66
2023-11-05T03:15:18.052Z,98787.13
2023-11-05T03:17:48.764Z,98781.97
2023-11-05T03:20:19.068Z,98778.88
2023-11-05T03:22:50.933Z,98796.44
2023-11-05T03:25:22.838Z,98801.78
2023-11-05T03:27:51.637Z,98812.72
2023-11-05T03:30:20.866Z,98815.22
2023-11-05T03:32:49.758Z,98821.69
2023-11-05T03:35:18.728Z,98824.31
2023-11-05T03:37:47.686Z,98823.66
2023-11-05T03:40:16.725Z,98819.69
2023-11-05T03:42:47.071Z,98803.78
2023-11-05T03:45:16.505Z,98809.72
2023-11-05T03:47:45.424Z,98816.69
2023-11-05T03:50:15.887Z,98809.41
2023-11-05T03:52:44.681Z,98808.72
2023-11-05T03:55:13.837Z,98811.72
2023-11-05T03:57:42.641Z,98806.41
2023-11-05T04:00:14.320Z,98816.38
2023-11-05T04:02:43.133Z,98816.69
2023-11-05T04:05:12.072Z,98817.03
2023-11-05T04:07:41.004Z,98819.34
2023-11-05T04:10:09.933Z,98818.69
2023-11-05T04:12:39.904Z,98821.81
2023-11-05T04:15:09.714Z,98833.13
2023-11-05T04:17:40.225Z,98829.81
2023-11-05T04:20:09.881Z,98835.94
2023-11-05T04:22:38.819Z,98842.56
2023-11-05T04:25:08.423Z,98850.88
2023-11-05T04:27:37.229Z,98846.72
2023-11-05T04:30:06.953Z,98847.88
2023-11-05T04:32:37.599Z,98869.78
2023-11-05T04:35:08.462Z,98864.63
2023-11-05T04:37:38.337Z,98862.16
2023-11-05T04:40:08.175Z,98876.91
2023-11-05T04:42:36.963Z,98877.44
2023-11-05T04:45:06.409Z,98891.84
2023-11-05T04:47:35.380Z,98893.66
2023-11-05T04:50:04.688Z,98900.63
2023-11-05T04:52:36.052Z,98889.88
2023-11-05T04:55:04.882Z,98889.19
2023-11-05T04:57:33.659Z,98889.88
2023-11-05T05:00:02.541Z,98894.19
2023-11-05T05:02:31.329Z,98899.31
2023-11-05T05:05:00.296Z,98910.44
2023-11-05T05:07:29.179Z,98905.78
2023-11-05T05:09:59.690Z,98893.81
2023-11-05T05:12:29.985Z,98895.16
2023-11-05T05:15:00.282Z,98886.53
2023-11-05T05:17:29.143Z,98886.69
2023-11-05T05:19:58.195Z,98881.41
2023-11-05T05:22:28.311Z,98884.72
2023-11-05T05:24:58.628Z,98876.06
2023-11-05T05:27:27.517Z,98882.72
2023-11-05T05:29:56.479Z,98879.75
2023-11-05T05:32:25.455Z,98903.81
2023-11-05T05:34:54.227Z,98905.59
2023-11-05T05:37:23.073Z,98897.25
2023-11-05T05:39:51.958Z,98916.25
2023-11-05T05:42:22.199Z,98914.31
2023-11-05T05:44:51.497Z,98904.34
2023-11-05T05:47:20.229Z,98904.41
2023-11-05T05:49:49.082Z,98907.22
2023-11-05T05:52:18.057Z,98909.09
2023-11-05T05:54:46.951Z,98910.00
2023-11-05T05:57:17.796Z,98901.28
2023-11-05T05:59:48.448Z,98923.13
2023-11-05T06:02:17.454Z,98922.09
2023-11-05T06:04:46.213Z,98936.66
2023-11-05T06:07:15.116Z,98907.66
2023-11-05T06:09:44.264Z,98909.72
2023-11-05T06:12:14.568Z,98921.13
2023-11-05T06:14:47.287Z,98920.34
2023-11-05T06:17:21.260Z,98915.75
2023-11-05T06:19:50.138Z,98921.00
2023-11-05T06:22:18.928Z,98928.91
2023-11-05T06:24:47.797Z,98924.44
2023-11-05T06:27:16.615Z,98913.66
2023-11-05T06:29:45.523Z,98909.41
2023-11-05T06:32:14.319Z,98928.97
2023-11-05T06:34:45.126Z,98926.84
2023-11-05T06:37:14.114Z,98939.72
2023-11-05T06:39:43.614Z,98950.19
2023-11-05T06:42:12.378Z,98947.00
2023-11-05T06:44:42.384Z,98972.38
2023-11-05T06:47:11.341Z,98982.97
2023-11-05T06:49:40.310Z,98971.50
2023-11-05T06:52:11.018Z,98988.03
2023-11-05T06:54:41.190Z,99006.19
2023-11-05T06:57:10.697Z,98993.31
2023-11-05T06:59:39.704Z,99009.25
2023-11-05T07:02:12.079Z,99002.69
2023-11-05T07:04:40.997Z,99016.97
2023-11-05T07:07:11.297Z,99039.91
2023-11-05T07:09:40.160Z,99037.06
2023-11-05T07:12:09.757Z,99045.97
2023-11-05T07:14:39.621Z,99052.00
2023-11-05T07:17:08.487Z,99072.47
2023-11-05T07:19:37.664Z,99054.19
2023-11-05T07:22:06.684Z,99073.31
2023-11-05T07:24:37.023Z,99073.19
2023-11-05T07:27:06.301Z,99077.44
2023-11-05T07:29:35.086Z,99061.16
2023-11-05T07:32:05.143Z,99074.47
2023-11-05T07:34:34.077Z,99081.53
2023-11-05T07:37:02.953Z,99093.28
2023-11-05T07:39:32.015Z,99096.38
2023-11-05T07:42:02.967Z,99101.72
2023-11-05T07:44:35.372Z,99097.34
2023-11-05T07:47:09.124Z,99102.88
2023-11-05T07:49:46.728Z,99096.00
2023-11-05T07:52:15.949Z,99122.28
2023-11-05T07:54:44.807Z,99129.53
2023-11-05T07:57:20.790Z,99121.88
2023-11-05T07:59:53.044Z,99139.94
2023-11-05T08:02:21.842Z,99129.19
2023-11-05T08:04:50.602Z,99149.06
2023-11-05T08:07:19.572Z,99147.00
2023-11-05T08:09:48.358Z,99156.94
2023-11-05T08:12:18.667Z,99163.94
2023-11-05T08:14:47.421Z,99169.94
2023-11-05T08:17:16.317Z,99169.06
2023-11-05T08:19:45.213Z,99184.19
2023-11-05T08:22:14.105Z,99176.09
2023-11-05T08:24:43.027Z,99187.53
2023-11-05T08:27:11.866Z,99192.09
2023-11-05T08:29:45.001Z,99198.09
2023-11-05T08:32:15.237Z,99193.06
2023-11-05T08:34:44.302Z,99199.91
2023-11-05T08:37:13.413Z,99202.16
2023-11-05T08:39:42.248Z,99208.59
2023-11-05T08:42:11.029Z,99224.13
2023-11-05T08:44:43.013Z,99224.38
2023-11-05T08:47:12.025Z,99212.56
2023-11-05T08:49:40.784Z,99234.94
2023-11-05T08:52:09.640Z,99238.03
2023-11-05T08:54:38.856Z,99229.34
2023-11-05T08:57:07.933Z,99230.78
2023-11-05T08:59:36.919Z,99235.75
2023-11-05T09:02:08.040Z,99248.16
2023-11-05T09:04:37.036Z,99247.97
2023-11-05T09:07:05.986Z,99263.88
2023-11-05T09:09:34.852Z,99267.22
2023-11-05T09:12:04.685Z,99280.66
2023-11-05T09:14:33.547Z,99291.84
2023-11-05T09:17:02.454Z,99304.44
2023-11-05T09:19:32.740Z,99283.72
2023-11-05T09:22:02.732Z,99312.31
2023-11-05T09:24:32.517Z,99325.75
2023-11-05T09:27:01.431Z,99327.63
2023-11-05T09:29:30.164Z,99333.81
2023-11-05T09:31:59.049Z,99335.03
2023-11-05T09:34:28.049Z,99342.50
2023-11-05T09:36:58.344Z,99336.69
2023-11-05T09:39:28.189Z,99347.06
2023-11-05T09:41:57.133Z,99341.03
2023-11-05T09:44:26.129Z,99347.88
2023-11-05T09:46:56.587Z,99354.72
2023-11-05T09:49:25.386Z,99361.53
2023-11-05T09:51:54.331Z,99374.75
2023-11-05T09:54:24.804Z,99390.09
2023-11-05T09:56:53.639Z,99387.41
2023-11-05T09:59:22.492Z,99402.09
2023-11-05T10:01:57.950Z,99395.06
2023-11-05T10:04:26.727Z,99406.66
2023-11-05T10:06:57.613Z,99407.50
2023-11-05T10:09:27.851Z,99423.03
2023-11-05T10:11:57.216Z,99422.41
2023-11-05T10:14:26.040Z,99436.28
2023-11-05T10:16:56.137Z,99434.00
2023-11-05T10:19:25.076Z,99436.06
2023-11-05T10:21:54.299Z,99452.84
2023-11-05T10:24:43.212Z,99430.69
2023-11-05T10:27:12.028Z,99445.38
2023-11-05T10:29:41.992Z,99441.44
2023-11-05T10:32:11.110Z,99452.81
2023-11-05T10:34:41.198Z,99461.94
2023-11-05T10:37:10.061Z,99465.88
2023-11-05T10:39:39.521Z,99493.22
2023-11-05T10:42:13.674Z,99489.47
2023-11-05T10:44:45.616Z,99492.16
2023-11-05T10:47:15.351Z,99493.34
2023-11-05T10:49:45.977Z,99493.56
2023-11-05T10:52:15.239Z,99490.00
2023-11-05T10:54:44.138Z,99508.88
2023-11-05T10:57:44.674Z,99504.31
2023-11-05T11:00:48.741Z,99508.50
2023-11-05T11:03:17.749Z,99515.53
2023-11-05T11:06:02.405Z,99499.16
2023-11-05T11:08:33.057Z,99523.59
2023-11-05T11:11:17.085Z,99522.50
2023-11-05T11:13:56.554Z,99527.47
2023-11-05T11:16:32.880Z,99532.44
2023-11-05T11:19:12.584Z,99534.94
2023-11-05T11:21:44.997Z,99541.13
2023-11-05T11:24:38.485Z,99530.47
2023-11-05T11:27:08.642Z,99540.41
2023-11-05T11:29:42.978Z,99547.44
2023-11-05T11:32:14.783Z,99546.34
2023-11-05T11:34:47.263Z,99533.34
2023-11-05T11:37:17.867Z,99554.81
2023-11-05T11:39:46.771Z,99563.34
2023-11-05T11:42:15.892Z,99558.78
2023-11-05T11:44:47.399Z,99581.41
2023-11-05T11:47:16.653Z,99559.00
2023-11-05T11:49:45.924Z,99572.91
2023-11-05T11:52:15.167Z,99588.91
2023-11-05T11:54:46.292Z,99571.84
2023-11-05T11:57:16.649Z,99587.19
2023-11-05T11:59:50.296Z,99589.59
2023-11-05T12:02:20.268Z,99591.44
2023-11-05T12:04:49.427Z,99589.34
2023-11-05T12:07:18.578Z,99599.72
2023-11-05T12:09:47.583Z,99605.75
2023-11-05T12:12:20.950Z,99603.44
2023-11-05T12:14:55.244Z,99609.06
2023-11-05T12:17:24.887Z,99598.91
2023-11-05T12:19:54.414Z,99614.06
2023-11-05T12:22:24.415Z,99607.66
2023-11-05T12:24:53.406Z,99612.69
2023-11-05T12:27:22.343Z,99619.00
2023-11-05T12:29:54.107Z,99618.78
2023-11-05T12:32:34.297Z,99614.81
2023-11-05T12:35:03.604Z,99621.06
2023-11-05T12:37:33.485Z,99619.59
2023-11-05T12:40:02.505Z,99620.44
2023-11-05T12:42:33.947Z,99627.66
2023-11-05T12:45:05.817Z,99593.22
2023-11-05T12:47:35.012Z,99621.97
2023-11-05T12:50:04.004Z,99620.69
2023-11-05T12:52:32.855Z,99630.41
2023-11-05T12:55:01.839Z,99640.94
2023-11-05T12:57:30.689Z,99636.16
2023-11-05T12:59:59.512Z,99648.22
2023-11-05T13:02:29.998Z,99646.13
2023-11-05T13:04:59.269Z,99635.75
2023-11-05T13:07:29.583Z,99643.03
2023-11-05T13:09:58.500Z,99648.00
2023-11-05T13:12:27.308Z,99643.66
2023-11-05T13:14:56.065Z,99640.13
2023-11-05T13:17:25.498Z,99655.13
2023-11-05T13:19:55.826Z,99643.06
2023-11-05T13:22:24.624Z,99662.88
2023-11-05T13:24:53.455Z,99673.06
2023-11-05T13:27:22.352Z,99661.88
2023-11-05T13:29:51.222Z,99648.38
2023-11-05T13:32:20.760Z,99651.31
2023-11-05T13:34:51.813Z,99662.56
2023-11-05T13:37:23.240Z,99657.34
2023-11-05T13:39:52.059Z,99676.25
2023-11-05T13:42:21.947Z,99676.25
2023-11-05T13:44:50.783Z,99684.97
2023-11-05T13:47:19.800Z,99689.56
2023-11-05T13:49:48.594Z,99704.13
2023-11-05T13:52:18.266Z,99702.88
2023-11-05T13:54:49.620Z,99696.00
2023-11-05T13:57:19.701Z,99685.91
2023-11-05T13:59:49.122Z,99714.31
2023-11-05T14:02:18.241Z,99726.16
2023-11-05T14:04:47.041Z,99739.09
2023-11-05T14:07:17.301Z,99738.88
2023-11-05T14:09:46.248Z,99740.13
2023-11-05T14:12:16.587Z,99739.72
2023-11-05T14:14:45.541Z,99745.97
2023-11-05T14:17:14.736Z,99756.78
2023-11-05T14:19:43.693Z,99768.41
2023-11-05T14:22:12.513Z,99769.03
2023-11-05T14:24:41.490Z,99768.84
2023-11-05T14:27:10.352Z,99778.78
2023-11-05T14:29:40.652Z,99776.28
2023-11-05T14:32:09.860Z,99786.88
2023-11-05T14:34:38.795Z,99792.72
2023-11-05T14:37:07.888Z,99791.88
2023-11-05T14:39:37.399Z,99792.91
2023-11-05T14:42:08.056Z,99803.94
2023-11-05T14:44:38.250Z,99804.78
2023-11-05T14:47:09.598Z,99806.22
2023-11-05T14:49:38.439Z,99820.59
2023-11-05T14:52:08.334Z,99824.34
2023-11-05T14:54:37.838Z,99813.94
2023-11-05T14:57:07.292Z,99825.41
2023-11-05T14:59:36.163Z,99830.78
2023-11-05T15:02:05.009Z,99842.56
2023-11-05T15:04:36.990Z,99839.44
2023-11-05T15:07:06.169Z,99842.56
2023-11-05T15:09:35.268Z,99845.25
2023-11-05T15:12:15.185Z,99845.47
2023-11-05T15:14:48.313Z,99841.13
2023-11-05T15:17:17.136Z,99838.00
2023-11-05T15:19:47.413Z,99849.41
2023-11-05T15:22:16.542Z,99848.16
2023-11-05T15:24:46.372Z,99855.00
2023-11-05T15:27:15.294Z,99865.75
2023-11-05T15:29:45.101Z,99868.03
2023-11-05T15:32:14.405Z,99869.06
2023-11-05T15:34:43.304Z,99881.28
2023-11-05T15:37:14.661Z,99881.25
2023-11-05T15:39:44.724Z,99890.34
2023-11-05T15:42:13.431Z,99889.50
2023-11-05T15:44:42.235Z,99896.31
2023-11-05T15:47:12.130Z,99917.44
2023-11-05T15:49:44.469Z,99907.69
2023-11-05T15:52:14.740Z,99916.19
2023-11-05T15:54:46.423Z,99905.34
2023-11-05T15:57:17.179Z,99921.09
2023-11-05T15:59:47.147Z,99931.66
2023-11-05T16:02:15.957Z,99934.47
2023-11-05T16:04:44.749Z,99935.06
2023-11-05T16:07:15.077Z,99929.41
2023-11-05T16:09:43.884Z,99950.69
2023-11-05T16:12:12.762Z,99958.97
2023-11-05T16:14:41.542Z,99968.47
2023-11-05T16:17:10.298Z,99993.66
2023-11-05T16:19:40.675Z,99997.56
2023-11-05T16:22:09.642Z,100004.78
2023-11-05T16:24:39.926Z,100009.50
2023-11-05T16:27:08.825Z,100015.47
2023-11-05T16:29:37.748Z,100021.63
2023-11-05T16:32:07.278Z,100022.38
2023-11-05T16:34:37.314Z,100024.78
2023-11-05T16:37:06.288Z,100028.50
2023-11-05T16:39:35.093Z,100029.56
2023-11-05T16:42:06.709Z,100039.69
2023-11-05T16:44:36.550Z,100044.97
2023-11-05T16:47:11.432Z,100046.19
2023-11-05T16:49:42.146Z,100061.69
2023-11-05T16:52:14.813Z,100069.13
2023-11-05T16:54:45.823Z,100084.59
2023-11-05T16:57:16.520Z,100080.44
2023-11-05T16:59:45.378Z,100092.41
2023-11-05T17:02:14.218Z,100101.69
2023-11-05T17:04:47.824Z,100111.31
2023-11-05T17:07:17.116Z,100111.59
2023-11-05T17:09:49.321Z,100115.84
2023-11-05T17:12:19.650Z,100118.00
2023-11-05T17:14:48.532Z,100114.00
2023-11-05T17:17:17.395Z,100119.41
2023-11-05T17:19:47.179Z,100118.75
2023-11-05T17:22:19.678Z,100099.34
2023-11-05T17:24:49.086Z,100142.00
2023-11-05T17:27:19.596Z,100154.78
2023-11-05T17:29:48.526Z,100152.81
2023-11-05T17:32:17.423Z,100156.06
2023-11-05T17:34:46.262Z,100146.59
2023-11-05T17:37:15.002Z,100159.31
2023-11-05T17:39:43.897Z,100164.88
2023-11-05T17:42:12.659Z,100169.09
2023-11-05T17:44:43.012Z,100162.06
2023-11-05T17:47:11.858Z,100150.84
2023-11-05T17:49:41.055Z,100153.34
2023-11-05T17:52:10.322Z,100150.66
2023-11-05T17:54:39.076Z,100153.34
2023-11-05T17:57:08.548Z,100139.78
2023-11-05T17:59:38.368Z,100160.25
2023-11-05T18:02:09.120Z,100172.03
2023-11-05T18:04:38.183Z,100160.63
2023-11-05T18:07:07.563Z,100162.19
2023-11-05T18:09:36.380Z,100165.91
2023-11-05T18:12:06.206Z,100166.91
2023-11-05T18:14:35.003Z,100166.25
2023-11-05T18:17:03.952Z,100166.63
2023-11-05T18:19:34.256Z,100166.25
2023-11-05T18:22:03.352Z,100168.28
2023-11-05T18:24:33.455Z,100171.34
2023-11-05T18:27:02.337Z,100179.22
2023-11-05T18:29:31.932Z,100175.50
2023-11-05T18:32:00.717Z,100197.00
2023-11-05T18:34:29.569Z,100202.56
2023-11-05T18:37:00.091Z,100190.13
2023-11-05T18:39:28.912Z,100178.78
2023-11-05T18:41:58.132Z,100190.72
2023-11-05T18:44:26.970Z,100178.47
2023-11-05T18:46:55.804Z,100169.47
2023-11-05T18:49:24.977Z,100170.81
2023-11-05T18:51:54.513Z,100172.25
2023-11-05T18:54:25.641Z,100153.69
2023-11-05T18:56:54.776Z,100163.41
2023-11-05T18:59:26.123Z,100165.03
2023-11-05T19:01:55.154Z,100173.09
2023-11-05T19:04:24.964Z,100177.00
2023-11-05T19:06:53.813Z,100186.06
2023-11-05T19:09:22.933Z,100186.53
2023-11-05T19:11:57.119Z,100178.53
2023-11-05T19:14:28.324Z,100193.75
2023-11-05T19:16:57.538Z,100205.03
2023-11-05T19:19:26.837Z,100195.81
2023-11-05T19:21:58.993Z,100196.63
2023-11-05T19:24:33.695Z,100201.69
2023-11-05T19:27:19.551Z,100207.38
2023-11-05T19:30:01.046Z,100219.50
2023-11-05T19:32:38.940Z,100223.22
2023-11-05T19:35:15.749Z,100233.00
2023-11-05T19:37:52.240Z,100222.63
2023-11-05T19:40:29.193Z,100209.22
2023-11-05T19:43:14.374Z,100230.22
2023-11-05T19:45:53.707Z,100249.56
2023-11-05T19:48:34.508Z,100257.22
2023-11-05T19:51:10.516Z,100254.56
2023-11-05T19:53:48.281Z,100257.59
2023-11-05T19:56:26.908Z,100265.84
2023-11-05T19:59:09.833Z,100270.38
2023-11-05T20:01:49.092Z,100270.59
2023-11-05T20:04:33.178Z,100270.75
2023-11-05T20:07:11.740Z,100269.41
2023-11-05T20:09:51.913Z,100273.78
2023-11-05T20:12:27.652Z,100291.53
2023-11-05T20:15:14.089Z,100288.34
2023-11-05T20:18:01.961Z,100295.22
2023-11-05T20:20:39.102Z,100311.00
2023-11-05T20:23:15.777Z,100309.31
2023-11-05T20:25:54.249Z,100305.63
2023-11-05T20:28:32.605Z,100311.31
2023-11-05T20:31:17.065Z,100313.00
2023-11-05T20:33:55.233Z,100315.84
2023-11-05T20:36:33.287Z,100317.31
2023-11-05T20:39:10.769Z,100318.50
2023-11-05T20:41:48.465Z,100327.53
2023-11-05T20:44:24.076Z,100325.53
2023-11-05T20:47:09.641Z,100334.25
2023-11-05T20:50:00.535Z,100333.56
2023-11-05T20:52:38.910Z,100336.09
2023-11-05T20:55:26.829Z,100351.84
2023-11-05T20:58:06.624Z,100353.69
2023-11-05T21:00:47.688Z,100350.50
2023-11-05T21:03:36.403Z,100349.50
2023-11-05T21:06:22.165Z,100357.72
2023-11-05T21:09:08.888Z,100367.44
2023-11-05T21:11:48.257Z,100373.31
2023-11-05T21:14:31.954Z,100382.03
2023-11-05T21:17:11.574Z,100381.00
2023-11-05T21:19:52.693Z,100383.38
2023-11-05T21:22:31.818Z,100379.00
2023-11-05T21:25:15.750Z,100375.97
2023-11-05T21:27:53.971Z,100382.44
2023-11-05T21:30:32.663Z,100388.47
2023-11-05T21:33:15.119Z,100394.25
2023-11-05T21:35:54.905Z,100389.56
2023-11-05T21:38:32.157Z,100388.69
2023-11-05T21:41:11.542Z,100395.84
2023-11-05T21:43:49.235Z,100392.13
2023-11-05T21:46:27.722Z,100399.03
2023-11-05T21:49:04.227Z,100404.53
2023-11-05T21:51:52.715Z,100391.56
2023-11-05T21:54:30.634Z,100399.56
2023-11-05T21:57:15.280Z,100400.47
2023-11-05T21:59:58.474Z,100399.34
2023-11-05T22:02:35.631Z,100431.13
2023-11-05T22:05:13.539Z,100441.66
2023-11-05T22:07:55.252Z,100439.16
2023-11-05T22:10:32.118Z,100428.16
2023-11-05T22:13:11.110Z,100430.59
2023-11-05T22:15:40.651Z,100425.47
2023-11-05T22:18:09.634Z,100423.97
2023-11-05T22:20:39.526Z,100421.44
2023-11-05T22:23:11.235Z,100417.53
2023-11-05T22:25:40.175Z,100419.13
2023-11-05T22:28:09.955Z,100413.84
2023-11-05T22:30:39.396Z,100409.31
2023-11-05T22:33:08.396Z,100415.88
2023-11-05T22:35:37.391Z,100417.91
2023-11-05T22:38:06.398Z,100434.91
2023-11-05T22:40:36.859Z,100430.97
2023-11-05T22:43:05.648Z,100443.75
2023-11-05T22:45:34.503Z,100439.84
2023-11-05T22:48:03.990Z,100433.25
2023-11-05T22:50:32.908Z,100435.94
2023-11-05T22:53:01.862Z,100435.56
2023-11-05T22:55:30.659Z,100427.84
2023-11-05T22:58:01.089Z,100427.28
2023-11-05T23:00:33.511Z,100423.66
2023-11-05T23:03:02.893Z,100431.13
2023-11-05T23:05:32.311Z,100426.75
2023-11-05T23:08:04.101Z,100423.69
2023-11-05T23:10:34.335Z,100428.50
2023-11-05T23:13:06.937Z,100388.69
2023-11-05T23:15:37.893Z,100433.00
2023-11-05T23:18:07.830Z,100442.97
2023-11-05T23:20:37.144Z,100446.09
2023-11-05T23:23:06.069Z,100456.34
2023-11-05T23:25:40.411Z,100445.53
2023-11-05T23:28:11.226Z,100448.06
2023-11-05T23:30:40.115Z,100435.47
2023-11-05T23:33:08.925Z,100429.16
2023-11-05T23:35:37.820Z,100435.84
2023-11-05T23:38:06.695Z,100426.16
2023-11-05T23:40:37.491Z,100424.66
2023-11-05T23:43:08.702Z,100408.94
2023-11-05T23:45:39.018Z,100431.53
2023-11-05T23:48:08.535Z,100420.72
2023-11-05T23:50:37.473Z,100438.81
2023-11-05T23:53:06.315Z,100446.25
2023-11-05T23:55:35.122Z,100443.44
2023-11-05T23:58:03.942Z,100443.31
